Impacts TAF Board INFO
FOR SITUATIONAL AWARENESS. NOT TO BE USED FOR FLIGHT PLANNING PURPOSES.
IDs:

KLAX - Los Angeles Intl, CA, US

Issued at 0237 UTC 23 May 2018
Updated at 0311 UTC 23 May 2018
Potential Impact None Slight Moderate High
Time<<24/04Z 24/05Z 24/06Z 24/07Z 24/08Z 24/09Z 24/10Z 24/11Z 24/12Z 24/13Z 24/14Z 24/15Z 24/16Z
Type PRVL PRVL
VIS >6 >6
CIG -- --
Cover SCT SCT
FltCat VFR VFR
WX -- --
WDir 260 260
WSpd 10 10
WGst -- --

Raw TAF
KLAX 230237Z 2303/2406 27012KT P6SM FEW040
  FM230700 VRB04KT P6SM OVC025
  FM231500 18008KT P6SM OVC015
  FM231800 25007KT P6SM BKN015 BKN035
  FM232200 26012KT P6SM SCT035
  FM240300 26010KT P6SM SCT050


METAR Board
Radar Display
Forecast Discussion

FOR SITUATIONAL AWARENESS. NOT TO BE USED FOR FLIGHT PLANNING PURPOSES.